createdAt,value
2022-12-22T00:00:04.022Z,13.63
2022-12-22T00:03:35.137Z,13.50
2022-12-22T00:06:34.111Z,13.07
2022-12-22T00:09:46.058Z,8.15
2022-12-22T00:12:53.076Z,10.98
2022-12-22T00:15:52.091Z,11.38
2022-12-22T00:19:04.111Z,11.50
2022-12-22T00:22:10.105Z,9.95
2022-12-22T00:25:09.090Z,10.27
2022-12-22T00:28:15.092Z,10.15
2022-12-22T00:31:15.178Z,10.52
2022-12-22T00:34:21.075Z,10.57
2022-12-22T00:37:13.803Z,6.55
2022-12-22T00:40:19.103Z,10.32
2022-12-22T00:43:18.067Z,8.98
2022-12-22T00:46:18.663Z,11.60
2022-12-22T00:49:24.107Z,6.28
2022-12-22T00:52:23.080Z,9.75
2022-12-22T00:55:22.897Z,6.45
2022-12-22T00:58:23.117Z,9.73
2022-12-22T01:01:23.220Z,9.88
2022-12-22T01:04:22.103Z,8.40
2022-12-22T01:07:22.081Z,9.10
2022-12-22T01:10:21.099Z,11.02
2022-12-22T01:13:27.082Z,11.43
2022-12-22T01:16:20.164Z,11.05
2022-12-22T01:19:26.331Z,7.30
2022-12-22T01:22:18.909Z,11.80
2022-12-22T01:25:25.116Z,6.90
2022-12-22T01:28:24.109Z,8.43
2022-12-22T01:31:23.803Z,8.30
2022-12-22T01:34:29.128Z,8.57
2022-12-22T01:37:22.073Z,8.90
2022-12-22T01:40:28.115Z,11.50
2022-12-22T01:43:27.087Z,6.70
2022-12-22T01:46:56.072Z,10.80
2022-12-22T01:50:07.088Z,6.97
2022-12-22T01:53:01.055Z,10.50
2022-12-22T01:56:07.071Z,11.77
2022-12-22T01:59:12.134Z,10.40
2022-12-22T02:02:24.166Z,9.63
2022-12-22T02:05:32.088Z,9.02
2022-12-22T02:08:37.784Z,10.77
2022-12-22T02:11:43.093Z,11.63
2022-12-22T02:14:42.107Z,12.93
2022-12-22T02:17:54.090Z,14.05
2022-12-22T02:21:03.085Z,9.25
2022-12-22T02:24:07.332Z,10.48
2022-12-22T02:27:25.097Z,14.65
2022-12-22T02:30:33.096Z,9.38
2022-12-22T02:33:39.076Z,13.80
2022-12-22T02:37:03.143Z,14.05
2022-12-22T02:40:56.098Z,13.30
2022-12-22T02:44:11.083Z,13.55
2022-12-22T02:47:09.058Z,10.70
2022-12-22T02:50:25.109Z,11.52
2022-12-22T02:53:24.120Z,12.75
2022-12-22T02:56:41.127Z,12.05
2022-12-22T02:59:47.102Z,12.95
2022-12-22T03:02:46.331Z,12.20
2022-12-22T03:05:52.104Z,11.75
2022-12-22T03:08:44.705Z,11.45
2022-12-22T03:11:50.084Z,12.52
2022-12-22T03:14:49.091Z,12.63
2022-12-22T03:17:48.709Z,13.13
2022-12-22T03:20:54.071Z,10.77
2022-12-22T03:23:46.600Z,12.43
2022-12-22T03:26:34.077Z,11.25
2022-12-22T03:29:14.091Z,13.60
2022-12-22T03:32:02.168Z,11.63
2022-12-22T03:34:37.056Z,11.65
2022-12-22T03:37:25.110Z,10.63
2022-12-22T03:40:05.075Z,12.13
2022-12-22T03:43:05.280Z,11.13
2022-12-22T03:46:04.129Z,12.00
2022-12-22T03:49:12.352Z,11.43
2022-12-22T03:52:08.088Z,10.25
2022-12-22T03:54:55.140Z,10.77
2022-12-22T03:57:36.083Z,11.65
2022-12-22T04:00:24.129Z,10.80
2022-12-22T04:03:05.196Z,10.10
2022-12-22T04:05:59.103Z,12.30
2022-12-22T04:08:46.123Z,13.00
2022-12-22T04:11:38.672Z,12.50
2022-12-22T04:14:31.304Z,10.93
2022-12-22T04:17:07.220Z,12.82
2022-12-22T04:19:55.103Z,10.73
2022-12-22T04:22:36.133Z,9.38
2022-12-22T04:25:24.112Z,10.63
2022-12-22T04:28:11.099Z,9.43
2022-12-22T04:30:58.125Z,10.55
2022-12-22T04:33:32.172Z,10.30
2022-12-22T04:36:20.131Z,9.20
2022-12-22T04:38:54.157Z,9.35
2022-12-22T04:41:41.131Z,11.63
2022-12-22T04:44:22.088Z,12.23
2022-12-22T04:47:16.113Z,11.90
2022-12-22T04:50:04.084Z,11.15
2022-12-22T04:52:38.174Z,11.98
2022-12-22T04:55:25.099Z,11.52
2022-12-22T04:58:06.114Z,12.35
2022-12-22T05:00:53.175Z,13.75
2022-12-22T05:03:27.213Z,13.10
2022-12-22T05:06:15.114Z,13.20
2022-12-22T05:08:56.095Z,11.40
2022-12-22T05:11:51.141Z,12.30
2022-12-22T05:14:38.134Z,11.98
2022-12-22T05:17:12.254Z,13.23
2022-12-22T05:19:59.151Z,13.18
2022-12-22T05:22:33.176Z,9.23
2022-12-22T05:25:23.108Z,12.23
2022-12-22T05:27:57.168Z,13.20
2022-12-22T05:30:44.207Z,11.70
2022-12-22T05:33:25.103Z,10.60
2022-12-22T05:36:13.142Z,11.88
2022-12-22T05:38:47.233Z,11.85
2022-12-22T05:41:34.125Z,11.90
2022-12-22T05:44:08.210Z,13.25
2022-12-22T05:46:59.137Z,14.40
2022-12-22T05:49:40.121Z,12.43
2022-12-22T05:52:27.143Z,13.98
2022-12-22T05:55:01.177Z,12.27
2022-12-22T05:57:49.174Z,14.05
2022-12-22T06:00:23.197Z,12.52
2022-12-22T06:03:10.168Z,13.18
2022-12-22T06:05:44.221Z,12.68
2022-12-22T06:08:32.137Z,11.95
2022-12-22T06:11:06.197Z,15.07
2022-12-22T06:13:54.113Z,16.23
2022-12-22T06:16:28.342Z,26.50
2022-12-22T06:19:15.160Z,24.55
2022-12-22T06:21:56.129Z,28.13
2022-12-22T06:24:43.154Z,29.05
2022-12-22T06:27:17.216Z,24.80
2022-12-22T06:30:04.120Z,25.02
2022-12-22T06:32:45.146Z,21.08
2022-12-22T06:35:39.122Z,18.13
2022-12-22T06:38:26.144Z,15.63
2022-12-22T06:41:07.103Z,13.68
2022-12-22T06:44:02.142Z,13.52
2022-12-22T06:46:49.204Z,13.88
2022-12-22T06:49:30.175Z,18.10
2022-12-22T06:52:24.128Z,15.32
2022-12-22T06:55:12.125Z,13.02
2022-12-22T06:57:46.198Z,20.38
2022-12-22T07:00:33.145Z,21.90
2022-12-22T07:03:14.540Z,20.65
2022-12-22T07:05:55.144Z,23.25
2022-12-22T07:08:43.134Z,35.40
2022-12-22T07:11:24.143Z,30.20
2022-12-22T07:14:12.134Z,23.58
2022-12-22T07:16:47.110Z,17.83
2022-12-22T07:19:35.154Z,15.63
2022-12-22T07:22:15.153Z,15.00
2022-12-22T07:25:03.245Z,14.50
2022-12-22T07:27:37.080Z,14.65
2022-12-22T07:30:25.120Z,17.55
2022-12-22T07:33:13.137Z,15.05
2022-12-22T07:36:19.167Z,15.20
2022-12-22T07:38:55.224Z,14.75
2022-12-22T07:42:01.208Z,14.82
2022-12-22T07:44:35.205Z,13.35
2022-12-22T07:47:23.116Z,13.40
2022-12-22T07:50:16.002Z,10.07
2022-12-22T07:53:06.142Z,13.75
2022-12-22T07:55:43.219Z,14.32
2022-12-22T07:58:30.130Z,15.07
2022-12-22T08:01:05.201Z,12.65
2022-12-22T08:03:52.123Z,14.73
2022-12-22T08:06:33.152Z,11.75
2022-12-22T08:09:15.845Z,16.15
2022-12-22T08:12:03.125Z,12.30
2022-12-22T08:14:43.135Z,12.30
2022-12-22T08:17:31.124Z,12.48
2022-12-22T08:20:05.929Z,13.85
2022-12-22T08:22:53.206Z,13.90
2022-12-22T08:25:34.130Z,14.68
2022-12-22T08:28:23.170Z,14.48
2022-12-22T08:31:03.119Z,13.55
2022-12-22T08:33:51.192Z,15.27
2022-12-22T08:36:25.370Z,15.23
2022-12-22T08:39:13.119Z,15.30
2022-12-22T08:41:50.242Z,13.82
2022-12-22T08:47:16.944Z,12.00
2022-12-22T08:50:05.111Z,12.95
2022-12-22T08:52:46.128Z,12.88
2022-12-22T08:55:34.124Z,10.93
2022-12-22T08:58:15.133Z,13.93
2022-12-22T09:01:03.240Z,14.75
2022-12-22T09:03:43.146Z,13.00
2022-12-22T09:06:27.437Z,13.38
2022-12-22T09:09:09.145Z,15.05
2022-12-22T09:11:57.155Z,12.73
2022-12-22T09:14:39.140Z,11.07
2022-12-22T09:17:20.233Z,10.48
2022-12-22T09:20:01.141Z,10.27
2022-12-22T09:22:42.212Z,11.38
2022-12-22T09:25:25.183Z,11.50
2022-12-22T09:28:06.207Z,12.50
2022-12-22T09:30:58.145Z,11.00
2022-12-22T09:33:39.172Z,12.75
2022-12-22T09:36:29.159Z,14.70
2022-12-22T09:39:03.331Z,10.27
2022-12-22T09:41:57.190Z,10.10
2022-12-22T09:44:31.239Z,15.00
2022-12-22T09:47:44.139Z,13.40
2022-12-22T09:50:30.164Z,12.07
2022-12-22T09:53:30.184Z,13.55
2022-12-22T09:56:04.231Z,11.77
2022-12-22T09:58:53.153Z,12.15
2022-12-22T10:01:40.271Z,13.43
2022-12-22T10:04:27.128Z,14.10
2022-12-22T10:07:23.141Z,14.90
2022-12-22T10:10:31.169Z,13.10
2022-12-22T10:13:13.169Z,14.77
2022-12-22T10:15:53.255Z,16.17
2022-12-22T10:18:35.148Z,17.48
2022-12-22T10:21:20.205Z,19.63
2022-12-22T10:24:01.327Z,18.45
2022-12-22T10:26:41.131Z,19.52
2022-12-22T10:29:31.174Z,16.83
2022-12-22T10:32:19.228Z,15.63
2022-12-22T10:35:13.132Z,14.43
2022-12-22T10:37:47.138Z,15.30
2022-12-22T10:40:37.141Z,15.63
2022-12-22T10:43:18.152Z,14.07
2022-12-22T10:46:00.335Z,15.32
2022-12-22T10:48:46.203Z,16.20
2022-12-22T10:51:31.261Z,13.82
2022-12-22T10:54:12.175Z,15.07
2022-12-22T10:57:12.182Z,14.00
2022-12-22T11:00:07.187Z,13.75
2022-12-22T11:02:48.345Z,15.35
2022-12-22T11:05:29.192Z,15.38
2022-12-22T11:08:33.140Z,16.15
2022-12-22T11:11:40.153Z,16.90
2022-12-22T11:14:30.221Z,17.42
2022-12-22T11:17:17.234Z,17.77
2022-12-22T11:20:05.237Z,17.77
2022-12-22T11:22:54.187Z,17.30
2022-12-22T11:25:44.161Z,16.92
2022-12-22T11:28:43.792Z,16.88
2022-12-22T11:31:44.154Z,17.85
2022-12-22T11:34:29.477Z,16.33
2022-12-22T11:37:28.148Z,16.05
2022-12-22T11:40:11.169Z,18.00
2022-12-22T11:43:22.156Z,17.20
2022-12-22T11:46:25.247Z,19.45
2022-12-22T11:49:22.190Z,20.85
2022-12-22T11:52:05.193Z,22.88
2022-12-22T11:55:11.162Z,22.38
2022-12-22T11:58:16.185Z,20.02
2022-12-22T12:01:24.131Z,19.27
2022-12-22T12:04:09.285Z,19.52
2022-12-22T12:07:03.162Z,20.20
2022-12-22T12:10:00.195Z,25.33
2022-12-22T12:12:41.223Z,27.20
2022-12-22T12:15:28.213Z,25.45
2022-12-22T12:18:27.302Z,25.75
2022-12-22T12:21:08.143Z,27.45
2022-12-22T12:23:58.317Z,31.70
2022-12-22T12:29:22.198Z,27.98
2022-12-22T12:32:11.252Z,31.33
2022-12-22T12:34:54.185Z,25.55
2022-12-22T12:37:40.198Z,25.88
2022-12-22T12:40:28.297Z,26.65
2022-12-22T12:43:19.204Z,25.60
2022-12-22T12:45:55.364Z,27.38
2022-12-22T12:48:42.199Z,27.50
2022-12-22T12:51:52.309Z,27.13
2022-12-22T12:54:39.182Z,30.45
2022-12-22T12:57:36.162Z,31.10
2022-12-22T13:03:53.202Z,31.63
2022-12-22T13:06:49.380Z,26.25
2022-12-22T13:09:50.608Z,26.08
2022-12-22T13:12:55.185Z,24.48
2022-12-22T13:15:36.317Z,29.77
2022-12-22T13:18:33.181Z,27.38
2022-12-22T13:21:51.416Z,26.20
2022-12-22T13:24:45.225Z,28.35
2022-12-22T13:27:35.205Z,27.80
2022-12-22T13:30:16.215Z,27.85
2022-12-22T13:33:10.201Z,32.13
2022-12-22T13:35:59.375Z,29.55
2022-12-22T13:38:40.215Z,30.10
2022-12-22T13:41:35.295Z,34.22
2022-12-22T13:44:24.195Z,30.95
2022-12-22T13:46:58.287Z,30.15
2022-12-22T13:52:42.270Z,30.33
2022-12-22T13:55:34.222Z,32.97
2022-12-22T13:58:19.244Z,32.05
2022-12-22T14:01:19.288Z,34.45
2022-12-22T14:04:04.755Z,30.73
2022-12-22T14:06:51.213Z,27.42
2022-12-22T14:09:39.205Z,27.83
2022-12-22T14:12:36.215Z,29.98
2022-12-22T14:15:25.176Z,29.60
2022-12-22T14:17:59.263Z,25.08
2022-12-22T14:20:47.177Z,30.98
2022-12-22T14:23:32.213Z,32.42
2022-12-22T14:26:30.216Z,31.88
2022-12-22T14:29:21.181Z,31.15
2022-12-22T14:32:15.315Z,29.50
2022-12-22T14:35:09.172Z,32.63
2022-12-22T14:38:15.235Z,32.03
2022-12-22T14:41:03.184Z,35.30
2022-12-22T14:43:43.168Z,33.72
2022-12-22T14:46:25.450Z,34.88
2022-12-22T14:49:06.165Z,34.30
2022-12-22T14:51:47.293Z,34.92
2022-12-22T14:54:30.225Z,35.00
2022-12-22T14:57:16.956Z,34.20
2022-12-22T15:00:10.194Z,35.00
2022-12-22T15:03:26.325Z,35.28
2022-12-22T15:06:18.677Z,36.05
2022-12-22T15:09:33.321Z,36.30
2022-12-22T15:12:14.251Z,32.63
2022-12-22T15:15:02.217Z,35.03
2022-12-22T15:17:36.153Z,34.13
2022-12-22T15:20:27.207Z,36.15
2022-12-22T15:23:01.118Z,34.40
2022-12-22T15:25:49.208Z,35.35
2022-12-22T15:28:29.211Z,32.80
2022-12-22T15:31:11.343Z,38.05
2022-12-22T15:33:52.227Z,37.10
2022-12-22T15:36:33.300Z,34.80
2022-12-22T15:39:21.229Z,37.33
2022-12-22T15:42:02.322Z,31.05
2022-12-22T15:44:42.195Z,34.78
2022-12-22T15:47:23.281Z,28.60
2022-12-22T15:50:04.195Z,21.20
2022-12-22T15:52:52.187Z,21.30
2022-12-22T15:55:33.182Z,24.70
2022-12-22T15:58:14.317Z,25.60
2022-12-22T16:00:54.278Z,24.23
2022-12-22T16:03:42.346Z,21.48
2022-12-22T16:06:17.640Z,21.40
2022-12-22T16:09:11.240Z,24.48
2022-12-22T16:12:05.209Z,26.92
2022-12-22T16:14:56.192Z,24.70
2022-12-22T16:17:34.039Z,27.23
2022-12-22T16:20:21.206Z,28.23
2022-12-22T16:22:56.305Z,33.05
2022-12-22T16:25:45.198Z,31.00
2022-12-22T16:28:30.270Z,37.53
2022-12-22T16:31:10.358Z,36.00
2022-12-22T16:33:51.274Z,27.98
2022-12-22T16:36:32.228Z,21.92
2022-12-22T16:39:13.327Z,19.80
2022-12-22T16:42:00.196Z,20.13
2022-12-22T16:44:41.265Z,18.85
2022-12-22T16:47:27.185Z,21.60
2022-12-22T16:50:15.235Z,18.88
2022-12-22T16:52:56.199Z,17.95
2022-12-22T16:55:45.254Z,17.02
2022-12-22T16:58:19.211Z,19.05
2022-12-22T17:01:07.192Z,16.40
2022-12-22T17:03:43.038Z,19.25
2022-12-22T17:06:30.241Z,17.38
2022-12-22T17:09:05.380Z,16.05
2022-12-22T17:11:53.225Z,15.38
2022-12-22T17:14:28.845Z,17.13
2022-12-22T17:17:16.209Z,17.95
2022-12-22T17:19:51.559Z,17.23
2022-12-22T17:22:39.238Z,16.63
2022-12-22T17:25:24.214Z,15.63
2022-12-22T17:28:15.208Z,17.00
2022-12-22T17:30:56.256Z,12.60
2022-12-22T17:33:44.351Z,22.65
2022-12-22T17:36:41.215Z,15.90
2022-12-22T17:39:23.267Z,13.80
2022-12-22T17:42:04.252Z,12.52
2022-12-22T17:44:45.564Z,12.23
2022-12-22T17:47:34.672Z,11.75
2022-12-22T17:50:27.238Z,12.70
2022-12-22T17:53:08.203Z,12.18
2022-12-22T17:56:07.685Z,12.25
2022-12-22T17:58:50.214Z,12.60
2022-12-22T18:01:45.383Z,12.75
2022-12-22T18:04:19.143Z,12.10
2022-12-22T18:07:07.237Z,14.40
2022-12-22T18:09:55.208Z,12.13
2022-12-22T18:12:37.200Z,14.55
2022-12-22T18:15:29.208Z,14.02
2022-12-22T18:18:03.297Z,13.88
2022-12-22T18:21:07.500Z,14.25
2022-12-22T18:23:50.994Z,12.43
2022-12-22T18:26:46.225Z,12.70
2022-12-22T18:29:33.213Z,13.18
2022-12-22T18:32:09.297Z,12.77
2022-12-22T18:34:56.261Z,13.88
2022-12-22T18:37:37.225Z,13.25
2022-12-22T18:40:31.217Z,12.90
2022-12-22T18:43:19.241Z,13.82
2022-12-22T18:45:53.350Z,14.50
2022-12-22T18:48:41.244Z,12.02
2022-12-22T18:51:34.184Z,13.38
2022-12-22T18:54:44.196Z,12.30
2022-12-22T18:57:31.240Z,12.60
2022-12-22T19:00:11.502Z,10.48
2022-12-22T19:03:04.323Z,12.25
2022-12-22T19:05:47.235Z,12.65
2022-12-22T19:08:46.003Z,11.82
2022-12-22T19:11:37.220Z,11.13
2022-12-22T19:14:11.344Z,12.80
2022-12-22T19:16:59.261Z,11.88
2022-12-22T19:19:40.212Z,12.65
2022-12-22T19:22:34.191Z,12.18
2022-12-22T19:25:22.252Z,11.90
2022-12-22T19:27:58.404Z,9.98
2022-12-22T19:30:46.195Z,10.77
2022-12-22T19:33:24.339Z,11.50
2022-12-22T19:36:12.201Z,10.57
2022-12-22T19:38:50.489Z,11.43
2022-12-22T19:41:54.234Z,10.35
2022-12-22T19:44:38.255Z,10.55
2022-12-22T19:47:36.211Z,8.63
2022-12-22T19:50:27.392Z,8.95
2022-12-22T19:53:08.240Z,11.15
2022-12-22T19:55:50.353Z,11.48
2022-12-22T19:58:44.259Z,7.53
2022-12-22T20:01:25.404Z,12.98
2022-12-22T20:04:06.220Z,12.65
2022-12-22T20:06:47.313Z,16.88
2022-12-22T20:09:27.235Z,13.13
2022-12-22T20:12:08.338Z,12.45
2022-12-22T20:14:50.208Z,12.05
2022-12-22T20:17:31.357Z,15.52
2022-12-22T20:20:12.241Z,13.13
2022-12-22T20:23:03.384Z,17.98
2022-12-22T20:25:46.258Z,11.20
2022-12-22T20:28:39.210Z,11.48
2022-12-22T20:31:15.646Z,8.32
2022-12-22T20:34:03.242Z,9.50
2022-12-22T20:36:44.252Z,9.80
2022-12-22T20:39:32.248Z,8.90
2022-12-22T20:42:06.225Z,8.85
2022-12-22T20:45:02.539Z,14.52
2022-12-22T20:47:45.246Z,12.88
2022-12-22T20:50:42.279Z,10.68
2022-12-22T20:53:17.781Z,12.00
2022-12-22T20:56:05.253Z,11.85
2022-12-22T20:58:39.156Z,6.65
2022-12-22T21:01:27.302Z,9.50
2022-12-22T21:04:01.204Z,11.30
2022-12-22T21:06:50.232Z,9.05
2022-12-22T21:09:24.634Z,8.00
2022-12-22T21:12:12.229Z,8.38
2022-12-22T21:14:46.185Z,5.30
2022-12-22T21:17:34.257Z,6.50
2022-12-22T21:20:25.217Z,9.20
2022-12-22T21:23:06.340Z,7.00
2022-12-22T21:25:47.284Z,7.25
2022-12-22T21:28:41.262Z,8.65
2022-12-22T21:31:15.336Z,7.35
2022-12-22T21:34:03.260Z,5.85
2022-12-22T21:36:37.414Z,7.78
2022-12-22T21:39:34.258Z,7.32
2022-12-22T21:42:23.292Z,6.75
2022-12-22T21:44:57.385Z,9.02
2022-12-22T21:47:44.315Z,8.32
2022-12-22T21:50:38.316Z,7.50
2022-12-22T21:53:25.219Z,7.95
2022-12-22T21:56:06.271Z,11.05
2022-12-22T21:59:03.677Z,12.65
2022-12-22T22:01:52.393Z,10.88
2022-12-22T22:04:27.334Z,9.93
2022-12-22T22:07:14.240Z,7.70
2022-12-22T22:09:48.339Z,8.45
2022-12-22T22:12:43.219Z,6.95
2022-12-22T22:15:25.261Z,9.52
2022-12-22T22:18:19.251Z,9.00
2022-12-22T22:21:06.265Z,9.32
2022-12-22T22:23:40.304Z,7.85
2022-12-22T22:26:27.235Z,9.75
2022-12-22T22:29:01.333Z,8.85
2022-12-22T22:31:48.313Z,9.55
2022-12-22T22:34:30.250Z,10.35
2022-12-22T22:37:17.271Z,11.00
2022-12-22T22:39:51.345Z,8.40
2022-12-22T22:42:38.265Z,7.47
2022-12-22T22:45:12.301Z,7.45
2022-12-22T22:48:00.262Z,5.70
2022-12-22T22:50:41.231Z,3.78
2022-12-22T22:53:28.293Z,5.53
2022-12-22T22:56:09.231Z,6.15
2022-12-22T22:58:56.229Z,3.35
2022-12-22T23:01:37.325Z,4.22
2022-12-22T23:04:31.293Z,4.55
2022-12-22T23:07:18.276Z,3.88
2022-12-22T23:09:53.309Z,3.90
2022-12-22T23:12:40.270Z,3.78
2022-12-22T23:15:22.241Z,2.60
2022-12-22T23:18:09.239Z,3.17
2022-12-22T23:20:50.286Z,4.18
2022-12-22T23:23:45.228Z,2.50
2022-12-22T23:26:33.285Z,3.13
2022-12-22T23:29:14.244Z,4.90
2022-12-22T23:32:02.312Z,3.85
2022-12-22T23:34:36.330Z,4.68
2022-12-22T23:37:23.246Z,5.50
2022-12-22T23:40:33.061Z,2.42
2022-12-22T23:43:19.218Z,3.50
2022-12-22T23:46:07.375Z,2.88
2022-12-22T23:48:41.496Z,3.17
2022-12-22T23:51:30.298Z,3.08
2022-12-22T23:54:06.374Z,3.08
2022-12-22T23:56:53.242Z,3.55
2022-12-22T23:59:34.257Z,4.00
